Portada
METAR-TAF:

METAR-TAF

Aeropuertos :

Nimes, Francia

latitud: 43-45N, longitud: 004-25E, altitud: 94 m

Observación

El informe se hizo hace 27 minutos, a las 17:30 UTC
Viento 8 kt del sureste
Temperatura 18°C
Humedad 77%
Presión 1026 hPa
Visibilidad 10 km o más
Cielo nuboso a una altura de 2000 ft
Cielo nuboso a una altura de 2700 ft
Cielo nuboso a una altura de 3300 ft

METAR: LFTW 191730Z AUTO 14008KT 9999 BKN020 BKN027 BKN033 18/14 Q1026 NOSIG

Hora: 19:57 (17:57 UTC)

Pronóstico

El informe se hizo hace 3 horas y 57 minutos, a las 14:00 UTC
Pronóstico válido del 19 a las 15 UTC al 20 a las 15 UTC
Viento 8 kt del sureste
Visibilidad 10 km o más
Cielo nuboso a una altura de 3000 ft
Probabilidad 30% :
Temporalmente
del 19 a las 23 UTC al 20 a las 09 UTC
lluvia ligera

TAF: LFTW 191400Z 1915/2015 13008KT 9999 BKN030 PROB30 TEMPO 1923/2009 -RA

Observaciones y pronósticos meteorológicos de más de 4000 aeropuertos (mensajes METAR y TAF).

Los puntos amarillos y rojos representan las estaciones disponibles.

Ponga el ratón en el punto deseado para ver el nombre de la estación.

Haga clic para ver las observaciones y los pronósticos meteorológicos.

Para cambiar el mapa : haga clic en los botones verdes con una cruz de color negro para hacer un zoom, en el botón verde con un guión para alejar o en las flechas verdes para mapas adyacentes.


METAR-TAF: